createdAt,value
2023-01-04T00:01:34.929Z,102001.19
2023-01-04T00:04:04.317Z,102002.13
2023-01-04T00:06:32.333Z,102003.00
2023-01-04T00:09:00.170Z,101995.69
2023-01-04T00:11:30.535Z,101982.66
2023-01-04T00:13:59.878Z,101973.78
2023-01-04T00:16:29.761Z,101959.53
2023-01-04T00:19:00.674Z,101966.66
2023-01-04T00:21:31.583Z,101951.34
2023-01-04T00:24:02.591Z,101946.03
2023-01-04T00:26:32.606Z,101936.13
2023-01-04T00:29:02.509Z,101932.69
2023-01-04T00:31:31.191Z,101932.41
2023-01-04T00:34:01.149Z,101943.81
2023-01-04T00:36:31.171Z,101938.50
2023-01-04T00:39:10.198Z,101926.50
2023-01-04T00:44:28.960Z,101926.75
2023-01-04T00:46:57.090Z,101918.03
2023-01-04T00:49:25.208Z,101902.91
2023-01-04T00:51:54.832Z,101886.97
2023-01-04T00:54:23.444Z,101882.41
2023-01-04T00:56:52.043Z,101872.66
2023-01-04T00:59:21.669Z,101873.94
2023-01-04T01:01:51.657Z,101862.13
2023-01-04T01:04:21.933Z,101857.47
2023-01-04T01:06:50.532Z,101847.56
2023-01-04T01:09:23.169Z,101859.38
2023-01-04T01:11:51.312Z,101850.25
2023-01-04T01:14:21.717Z,101846.41
2023-01-04T01:16:58.422Z,101834.22
2023-01-04T01:19:29.190Z,101834.03
2023-01-04T01:21:58.158Z,101823.34
2023-01-04T01:24:28.267Z,101808.09
2023-01-04T01:26:56.748Z,101803.81
2023-01-04T01:29:24.845Z,101807.00
2023-01-04T01:31:52.861Z,101810.59
2023-01-04T01:34:20.911Z,101807.38
2023-01-04T01:36:48.935Z,101797.63
2023-01-04T01:39:16.959Z,101785.84
2023-01-04T01:41:46.367Z,101788.47
2023-01-04T01:45:11.180Z,101774.56
2023-01-04T01:47:42.910Z,101765.75
2023-01-04T01:50:23.717Z,101759.72
2023-01-04T01:52:52.984Z,101758.16
2023-01-04T01:55:21.391Z,101750.94
2023-01-04T01:57:52.356Z,101747.28
2023-01-04T02:00:20.712Z,101744.19
2023-01-04T02:02:59.327Z,101734.31
2023-01-04T02:05:29.582Z,101732.47
2023-01-04T02:07:57.482Z,101713.63
2023-01-04T02:10:26.031Z,101716.84
2023-01-04T02:12:55.519Z,101713.31
2023-01-04T02:15:27.935Z,101702.06
2023-01-04T02:18:05.489Z,101701.88
2023-01-04T02:20:48.579Z,101700.75
2023-01-04T02:23:54.194Z,101689.53
2023-01-04T02:27:04.923Z,101671.25
2023-01-04T02:30:17.272Z,101663.22
2023-01-04T02:32:56.279Z,101665.88
2023-01-04T02:35:30.710Z,101651.63
2023-01-04T02:38:07.285Z,101641.63
2023-01-04T02:40:45.265Z,101635.44
2023-01-04T02:43:44.770Z,101631.81
2023-01-04T02:46:17.227Z,101622.97
2023-01-04T02:49:04.181Z,101613.88
2023-01-04T02:51:34.454Z,101591.31
2023-01-04T02:54:06.904Z,101577.97
2023-01-04T02:56:48.910Z,101579.34
2023-01-04T02:59:30.150Z,101569.00
2023-01-04T03:02:24.515Z,101561.75
2023-01-04T03:05:23.049Z,101555.00
2023-01-04T03:07:55.949Z,101539.81
2023-01-04T03:10:31.817Z,101535.47
2023-01-04T03:13:09.300Z,101528.47
2023-01-04T03:15:42.150Z,101516.19
2023-01-04T03:18:16.350Z,101506.94
2023-01-04T03:20:47.856Z,101512.81
2023-01-04T03:23:37.229Z,101497.03
2023-01-04T03:26:27.308Z,101491.94
2023-01-04T03:29:16.235Z,101470.66
2023-01-04T03:32:07.972Z,101463.59
2023-01-04T03:34:53.321Z,101464.13
2023-01-04T03:37:31.447Z,101456.94
2023-01-04T03:40:34.088Z,101436.88
2023-01-04T03:43:24.821Z,101433.03
2023-01-04T03:46:14.570Z,101430.03
2023-01-04T03:48:49.779Z,101420.53
2023-01-04T03:51:22.739Z,101407.97
2023-01-04T03:53:57.034Z,101393.81
2023-01-04T03:56:27.755Z,101399.97
2023-01-04T03:58:55.979Z,101387.81
2023-01-04T04:01:25.950Z,101390.84
2023-01-04T04:04:11.453Z,101382.81
2023-01-04T04:06:56.555Z,101374.78
2023-01-04T04:09:25.765Z,101375.59
2023-01-04T04:11:53.712Z,101349.38
2023-01-04T04:14:21.557Z,101355.41
2023-01-04T04:16:49.437Z,101353.63
2023-01-04T04:19:17.339Z,101337.41
2023-01-04T04:21:45.157Z,101352.56
2023-01-04T04:24:18.408Z,101338.16
2023-01-04T04:26:47.711Z,101331.59
2023-01-04T04:29:15.549Z,101329.47
2023-01-04T04:31:43.483Z,101327.69
2023-01-04T04:34:11.677Z,101316.44
2023-01-04T04:36:39.974Z,101317.19
2023-01-04T04:39:07.932Z,101303.09
2023-01-04T04:41:41.438Z,101299.47
2023-01-04T04:44:13.102Z,101292.75
2023-01-04T04:46:41.354Z,101288.72
2023-01-04T04:49:09.520Z,101282.84
2023-01-04T04:51:38.154Z,101267.84
2023-01-04T04:54:08.213Z,101259.44
2023-01-04T04:56:36.967Z,101264.53
2023-01-04T04:59:05.161Z,101246.00
2023-01-04T05:01:34.927Z,101230.94
2023-01-04T05:04:02.918Z,101224.34
2023-01-04T05:06:31.191Z,101223.75
2023-01-04T05:08:59.061Z,101214.56
2023-01-04T05:11:40.824Z,101218.22
2023-01-04T05:14:09.120Z,101212.72
2023-01-04T05:16:38.414Z,101204.41
2023-01-04T05:19:06.310Z,101186.34
2023-01-04T05:21:34.289Z,101193.16
2023-01-04T05:24:02.309Z,101194.16
2023-01-04T05:26:30.267Z,101180.53
2023-01-04T05:28:58.069Z,101186.25
2023-01-04T05:31:26.086Z,101167.94
2023-01-04T05:33:55.422Z,101163.78
2023-01-04T05:36:23.183Z,101165.34
2023-01-04T05:38:51.013Z,101146.47
2023-01-04T05:41:36.322Z,101137.28
2023-01-04T05:44:04.226Z,101133.28
2023-01-04T05:46:32.123Z,101132.41
2023-01-04T05:49:01.458Z,101116.38
2023-01-04T05:51:29.292Z,101113.97
2023-01-04T05:53:57.125Z,101109.44
2023-01-04T05:56:24.947Z,101111.88
2023-01-04T05:58:52.820Z,101100.34
2023-01-04T06:01:20.658Z,101097.44
2023-01-04T06:03:48.672Z,101091.75
2023-01-04T06:06:17.990Z,101091.69
2023-01-04T06:08:45.797Z,101086.22
2023-01-04T06:11:13.823Z,101081.63
2023-01-04T06:13:41.649Z,101077.19
2023-01-04T06:16:09.472Z,101078.69
2023-01-04T06:18:37.318Z,101065.03
2023-01-04T06:21:05.169Z,101063.06
2023-01-04T06:23:34.351Z,101068.38
2023-01-04T06:26:02.242Z,101056.91
2023-01-04T06:28:34.278Z,101046.03
2023-01-04T06:31:07.719Z,101045.66
2023-01-04T06:33:35.688Z,101041.09
2023-01-04T06:36:03.635Z,101037.44
2023-01-04T06:38:32.599Z,101026.34
2023-01-04T06:41:01.868Z,101018.34
2023-01-04T06:43:29.703Z,101018.72
2023-01-04T06:45:57.753Z,101015.53
2023-01-04T06:48:25.578Z,101008.00
2023-01-04T06:50:53.504Z,101006.81
2023-01-04T06:53:21.530Z,100997.38
2023-01-04T06:55:49.355Z,100994.63
2023-01-04T06:58:18.672Z,100994.53
2023-01-04T07:00:47.308Z,100973.06
2023-01-04T07:03:16.289Z,100975.25
2023-01-04T07:05:44.656Z,100977.59
2023-01-04T07:08:13.403Z,100971.19
2023-01-04T07:10:41.596Z,100965.03
2023-01-04T07:13:10.135Z,100956.09
2023-01-04T07:15:41.000Z,100956.47
2023-01-04T07:18:09.123Z,100949.88
2023-01-04T07:20:37.356Z,100947.66
2023-01-04T07:23:05.959Z,100941.00
2023-01-04T07:25:33.793Z,100930.94
2023-01-04T07:28:01.748Z,100929.06
2023-01-04T07:30:29.714Z,100927.97
2023-01-04T07:32:59.250Z,100923.34
2023-01-04T07:35:27.372Z,100924.88
2023-01-04T07:37:58.634Z,100917.59
2023-01-04T07:40:28.046Z,100917.31
2023-01-04T07:42:58.158Z,100919.00
2023-01-04T07:45:26.346Z,100919.34
2023-01-04T07:47:54.743Z,100911.00
2023-01-04T07:50:24.089Z,100903.88
2023-01-04T07:52:51.956Z,100901.75
2023-01-04T07:55:19.818Z,100906.13
2023-01-04T07:57:47.776Z,100898.47
2023-01-04T08:00:16.375Z,100898.38
2023-01-04T08:02:44.429Z,100904.22
2023-01-04T08:05:12.717Z,100905.84
2023-01-04T08:07:41.990Z,100897.84
2023-01-04T08:10:10.032Z,100894.94
2023-01-04T08:12:38.197Z,100881.75
2023-01-04T08:15:07.116Z,100898.53
2023-01-04T08:17:35.384Z,100889.59
2023-01-04T08:20:03.616Z,100886.22
2023-01-04T08:22:31.826Z,100886.75
2023-01-04T08:25:01.125Z,100878.06
2023-01-04T08:27:29.104Z,100880.19
2023-01-04T08:29:56.954Z,100877.00
2023-01-04T08:32:25.039Z,100870.84
2023-01-04T08:34:54.357Z,100866.44
2023-01-04T08:37:22.716Z,100872.53
2023-01-04T08:39:50.574Z,100866.84
2023-01-04T08:42:28.533Z,100873.31
2023-01-04T08:45:01.646Z,100863.53
2023-01-04T08:47:30.648Z,100870.19
2023-01-04T08:50:03.287Z,100859.16
2023-01-04T08:52:35.910Z,100860.97
2023-01-04T08:55:10.117Z,100858.84
2023-01-04T08:57:41.852Z,100864.00
2023-01-04T09:00:11.302Z,100860.50
2023-01-04T09:02:39.820Z,100861.53
2023-01-04T09:05:09.807Z,100859.28
2023-01-04T09:07:37.895Z,100858.84
2023-01-04T09:10:06.301Z,100848.31
2023-01-04T09:12:34.534Z,100853.50
2023-01-04T09:15:04.389Z,100845.41
2023-01-04T09:17:32.269Z,100835.88
2023-01-04T09:20:00.193Z,100842.84
2023-01-04T09:22:28.085Z,100823.19
2023-01-04T09:24:56.022Z,100837.50
2023-01-04T09:27:23.984Z,100827.09
2023-01-04T09:29:51.812Z,100829.69
2023-01-04T09:32:21.100Z,100823.69
2023-01-04T09:34:48.999Z,100821.88
2023-01-04T09:37:16.968Z,100825.31
2023-01-04T09:39:45.733Z,100814.81
2023-01-04T09:42:20.061Z,100812.25
2023-01-04T09:45:22.661Z,100817.22
2023-01-04T09:47:46.659Z,100818.00
2023-01-04T09:50:19.984Z,100814.72
2023-01-04T09:52:57.352Z,100810.16
2023-01-04T09:55:37.336Z,100801.22
2023-01-04T09:58:21.915Z,100795.00
2023-01-04T10:00:55.302Z,100797.19
2023-01-04T10:03:29.447Z,100790.53
2023-01-04T10:05:58.173Z,100790.31
2023-01-04T10:08:26.563Z,100788.13
2023-01-04T10:11:07.143Z,100787.09
2023-01-04T10:13:53.492Z,100792.50
2023-01-04T10:17:11.253Z,100774.13
2023-01-04T10:21:13.385Z,100786.22
2023-01-04T10:22:29.200Z,100764.00
2023-01-04T10:25:05.771Z,100773.47
2023-01-04T10:27:44.248Z,100769.44
2023-01-04T10:30:26.125Z,100766.09
2023-01-04T10:33:02.928Z,100758.16
2023-01-04T10:35:34.245Z,100761.34
2023-01-04T10:38:05.469Z,100760.28
2023-01-04T10:40:39.420Z,100747.03
2023-01-04T10:43:15.538Z,100751.41
2023-01-04T10:45:49.680Z,100755.44
2023-01-04T10:48:25.066Z,100748.47
2023-01-04T10:50:58.401Z,100737.88
2023-01-04T10:53:34.584Z,100735.31
2023-01-04T10:56:25.281Z,100732.13
2023-01-04T10:59:04.520Z,100729.78
2023-01-04T11:01:38.307Z,100727.00
2023-01-04T11:04:14.817Z,100722.19
2023-01-04T11:06:50.266Z,100718.03
2023-01-04T11:09:25.610Z,100724.88
2023-01-04T11:11:57.902Z,100709.31
2023-01-04T11:14:29.456Z,100697.22
2023-01-04T11:17:05.527Z,100712.44
2023-01-04T11:19:34.801Z,100701.59
2023-01-04T11:22:12.184Z,100710.78
2023-01-04T11:24:54.498Z,100705.53
2023-01-04T11:27:37.457Z,100702.59
2023-01-04T11:30:12.964Z,100707.41
2023-01-04T11:32:48.690Z,100691.00
2023-01-04T11:35:16.995Z,100702.44
2023-01-04T11:37:46.535Z,100692.53
2023-01-04T11:40:22.303Z,100695.91
2023-01-04T11:42:51.927Z,100687.91
2023-01-04T11:45:24.647Z,100686.72
2023-01-04T11:47:56.793Z,100680.72
2023-01-04T11:50:42.526Z,100677.53
2023-01-04T11:53:33.543Z,100679.38
2023-01-04T11:56:13.343Z,100669.66
2023-01-04T11:58:41.698Z,100672.84
2023-01-04T12:01:21.309Z,100674.59
2023-01-04T12:03:49.384Z,100664.97
2023-01-04T12:06:21.502Z,100662.81
2023-01-04T12:08:51.015Z,100664.53
2023-01-04T12:11:26.981Z,100672.22
2023-01-04T12:13:54.866Z,100665.59
2023-01-04T12:16:35.553Z,100655.78
2023-01-04T12:19:05.123Z,100649.91
2023-01-04T12:21:36.066Z,100646.78
2023-01-04T12:24:07.951Z,100643.28
2023-01-04T12:26:42.291Z,100651.94
2023-01-04T12:29:54.993Z,100655.78
2023-01-04T12:32:46.609Z,100654.91
2023-01-04T12:36:06.793Z,100648.75
2023-01-04T12:39:04.070Z,100643.81
2023-01-04T12:42:21.980Z,100650.75
2023-01-04T12:45:19.886Z,100648.63
2023-01-04T12:48:06.706Z,100642.50
2023-01-04T12:51:37.418Z,100654.38
2023-01-04T12:54:24.624Z,100646.81
2023-01-04T12:57:11.870Z,100648.84
2023-01-04T12:59:40.864Z,100650.44
2023-01-04T13:02:20.561Z,100642.00
2023-01-04T13:04:53.319Z,100632.69
2023-01-04T13:07:34.240Z,100641.84
2023-01-04T13:10:14.288Z,100641.44
2023-01-04T13:13:00.491Z,100630.22
2023-01-04T13:15:42.680Z,100643.16
2023-01-04T13:18:33.404Z,100650.50
2023-01-04T13:21:02.437Z,100640.16
2023-01-04T13:23:31.384Z,100644.09
2023-01-04T13:26:30.293Z,100636.09
2023-01-04T13:29:15.604Z,100609.41
2023-01-04T13:31:48.663Z,100618.00
2023-01-04T13:34:21.164Z,100611.88
2023-01-04T13:37:06.080Z,100618.63
2023-01-04T13:39:34.559Z,100618.75
2023-01-04T13:42:03.600Z,100609.41
2023-01-04T13:45:20.213Z,100610.16
2023-01-04T13:47:50.197Z,100604.19
2023-01-04T13:50:29.054Z,100600.88
2023-01-04T13:53:06.099Z,100597.97
2023-01-04T13:55:36.747Z,100589.53
2023-01-04T13:58:06.404Z,100596.91
2023-01-04T14:00:43.477Z,100587.63
2023-01-04T14:03:26.237Z,100592.84
2023-01-04T14:06:04.532Z,100584.59
2023-01-04T14:08:36.124Z,100580.13
2023-01-04T14:11:06.704Z,100577.19
2023-01-04T14:13:34.559Z,100577.94
2023-01-04T14:16:11.729Z,100565.66
2023-01-04T14:18:40.067Z,100550.34
2023-01-04T14:21:18.862Z,100553.69
2023-01-04T14:23:46.832Z,100555.69
2023-01-04T14:26:36.047Z,100556.69
2023-01-04T14:29:22.866Z,100550.47
2023-01-04T14:31:51.655Z,100537.66
2023-01-04T14:34:19.520Z,100536.69
2023-01-04T14:36:48.770Z,100565.88
2023-01-04T14:39:25.312Z,100543.97
2023-01-04T14:41:55.718Z,100547.03
2023-01-04T14:44:25.423Z,100542.22
2023-01-04T14:46:55.116Z,100544.72
2023-01-04T14:49:23.669Z,100541.69
2023-01-04T14:51:54.685Z,100536.22
2023-01-04T14:54:25.374Z,100544.38
2023-01-04T14:56:54.694Z,100548.59
2023-01-04T14:59:24.391Z,100557.13
2023-01-04T15:01:52.726Z,100549.50
2023-01-04T15:04:21.224Z,100544.16
2023-01-04T15:06:53.474Z,100535.28
2023-01-04T15:09:21.815Z,100537.94
2023-01-04T15:11:49.790Z,100539.66
2023-01-04T15:14:18.703Z,100529.31
2023-01-04T15:16:46.934Z,100522.03
2023-01-04T15:19:15.293Z,100527.91
2023-01-04T15:21:43.255Z,100514.88
2023-01-04T15:24:12.596Z,100518.41
2023-01-04T15:26:41.252Z,100520.97
2023-01-04T15:29:09.871Z,100523.53
2023-01-04T15:31:40.050Z,100523.75
2023-01-04T15:34:09.006Z,100520.91
2023-01-04T15:36:40.861Z,100517.44
2023-01-04T15:39:09.411Z,100514.13
2023-01-04T15:41:56.487Z,100514.56
2023-01-04T15:44:24.876Z,100517.91
2023-01-04T15:46:53.744Z,100523.25
2023-01-04T15:49:21.828Z,100520.78
2023-01-04T15:51:49.674Z,100529.56
2023-01-04T15:54:18.227Z,100520.28
2023-01-04T15:56:47.490Z,100527.44
2023-01-04T15:59:15.365Z,100520.28
2023-01-04T16:01:43.981Z,100506.47
2023-01-04T16:04:12.622Z,100512.09
2023-01-04T16:06:40.662Z,100500.09
2023-01-04T16:09:08.815Z,100497.31
2023-01-04T16:11:36.876Z,100494.22
2023-01-04T16:14:06.039Z,100489.50
2023-01-04T16:16:34.010Z,100485.41
2023-01-04T16:19:02.350Z,100486.47
2023-01-04T16:21:31.585Z,100491.22
2023-01-04T16:24:07.239Z,100485.41
2023-01-04T16:26:45.067Z,100477.94
2023-01-04T16:29:14.305Z,100488.41
2023-01-04T16:31:44.403Z,100491.97
2023-01-04T16:34:14.559Z,100483.47
2023-01-04T16:36:42.734Z,100489.06
2023-01-04T16:39:10.546Z,100495.81
2023-01-04T16:41:39.015Z,100499.44
2023-01-04T16:44:07.245Z,100507.91
2023-01-04T16:46:37.696Z,100503.00
2023-01-04T16:49:07.637Z,100512.00
2023-01-04T16:51:37.020Z,100510.91
2023-01-04T16:54:07.191Z,100528.56
2023-01-04T16:56:35.082Z,100519.03
2023-01-04T16:59:03.436Z,100509.34
2023-01-04T17:01:33.362Z,100503.25
2023-01-04T17:04:07.138Z,100509.22
2023-01-04T17:06:37.823Z,100518.19
2023-01-04T17:09:06.716Z,100521.31
2023-01-04T17:12:36.411Z,100514.94
2023-01-04T17:14:25.590Z,100530.03
2023-01-04T17:16:54.673Z,100531.59
2023-01-04T17:19:24.647Z,100520.78
2023-01-04T17:21:52.608Z,100519.97
2023-01-04T17:24:20.443Z,100518.84
2023-01-04T17:26:48.655Z,100517.38
2023-01-04T17:29:16.581Z,100525.09
2023-01-04T17:31:45.956Z,100521.34
2023-01-04T17:34:22.585Z,100514.00
2023-01-04T17:36:52.287Z,100514.34
2023-01-04T17:39:21.040Z,100514.41
2023-01-04T17:41:48.932Z,100516.78
2023-01-04T17:44:16.830Z,100512.69
2023-01-04T17:46:44.817Z,100515.91
2023-01-04T17:49:32.157Z,100518.50
2023-01-04T17:52:02.682Z,100518.31
2023-01-04T17:54:30.513Z,100514.53
2023-01-04T17:56:58.717Z,100516.16
2023-01-04T17:59:27.327Z,100512.94
2023-01-04T18:01:55.236Z,100516.78
2023-01-04T18:04:23.202Z,100510.25
2023-01-04T18:06:51.039Z,100507.97
2023-01-04T18:09:22.559Z,100502.44
2023-01-04T18:11:52.399Z,100509.59
2023-01-04T18:14:20.244Z,100501.78
2023-01-04T18:16:57.868Z,100511.88
2023-01-04T18:19:27.867Z,100520.19
2023-01-04T18:21:56.012Z,100515.84
2023-01-04T18:24:41.656Z,100509.19
2023-01-04T18:27:27.141Z,100516.34
2023-01-04T18:29:56.867Z,100519.66
2023-01-04T18:32:26.171Z,100518.47
2023-01-04T18:34:54.104Z,100513.19
2023-01-04T18:37:22.363Z,100504.53
2023-01-04T18:39:51.645Z,100498.50
2023-01-04T18:42:19.565Z,100500.63
2023-01-04T18:44:49.394Z,100497.25
2023-01-04T18:47:18.471Z,100502.69
2023-01-04T18:49:46.311Z,100508.78
2023-01-04T18:52:14.556Z,100491.78
2023-01-04T18:54:43.044Z,100495.97
2023-01-04T18:57:12.332Z,100486.03
2023-01-04T18:59:40.325Z,100488.72
2023-01-04T19:02:08.291Z,100490.19
2023-01-04T19:04:37.296Z,100470.00
2023-01-04T19:07:05.385Z,100478.66
2023-01-04T19:09:33.234Z,100487.09
2023-01-04T19:12:01.055Z,100484.78
2023-01-04T19:14:30.280Z,100484.13
2023-01-04T19:16:58.162Z,100479.97
2023-01-04T19:19:26.080Z,100487.25
2023-01-04T19:21:54.425Z,100483.81
2023-01-04T19:24:22.260Z,100471.97
2023-01-04T19:26:50.055Z,100480.50
2023-01-04T19:29:17.945Z,100477.63
2023-01-04T19:31:47.230Z,100484.00
2023-01-04T19:34:15.227Z,100484.22
2023-01-04T19:36:43.117Z,100467.75
2023-01-04T19:39:10.881Z,100471.81
2023-01-04T19:41:38.714Z,100471.16
2023-01-04T19:44:08.409Z,100475.31
2023-01-04T19:46:39.000Z,100459.63
2023-01-04T19:49:14.435Z,100473.00
2023-01-04T19:51:43.976Z,100462.31
2023-01-04T19:54:12.573Z,100461.00
2023-01-04T19:56:40.992Z,100459.44
2023-01-04T19:59:09.123Z,100453.97
2023-01-04T20:01:37.281Z,100457.72
2023-01-04T20:04:05.965Z,100457.06
2023-01-04T20:06:35.371Z,100462.00
2023-01-04T20:09:03.532Z,100473.00
2023-01-04T20:11:31.619Z,100462.84
2023-01-04T20:14:00.151Z,100469.88
2023-01-04T20:16:28.187Z,100450.44
2023-01-04T20:18:57.307Z,100470.25
2023-01-04T20:21:26.047Z,100484.53
2023-01-04T20:23:55.447Z,100491.19
2023-01-04T20:26:23.476Z,100482.22
2023-01-04T20:28:53.623Z,100485.22
2023-01-04T20:31:24.151Z,100494.94
2023-01-04T20:33:52.196Z,100479.44
2023-01-04T20:36:22.168Z,100480.31
2023-01-04T20:38:52.561Z,100482.00
2023-01-04T20:41:24.501Z,100482.66
2023-01-04T20:43:52.168Z,100485.66
2023-01-04T20:46:25.105Z,100486.63
2023-01-04T20:48:58.289Z,100481.38
2023-01-04T20:51:29.738Z,100477.44
2023-01-04T20:53:59.678Z,100477.44
2023-01-04T20:56:30.894Z,100489.84
2023-01-04T20:58:58.863Z,100483.09
2023-01-04T21:01:26.892Z,100494.84
2023-01-04T21:03:55.009Z,100473.47
2023-01-04T21:06:24.803Z,100484.16
2023-01-04T21:08:55.152Z,100483.84
2023-01-04T21:11:23.393Z,100494.84
2023-01-04T21:13:53.410Z,100485.84
2023-01-04T21:16:21.582Z,100480.84
2023-01-04T21:18:49.478Z,100484.44
2023-01-04T21:21:19.000Z,100494.50
2023-01-04T21:23:48.697Z,100492.81
2023-01-04T21:26:20.282Z,100488.75
2023-01-04T21:28:48.436Z,100498.38
2023-01-04T21:31:21.195Z,100501.06
2023-01-04T21:33:49.802Z,100492.69
2023-01-04T21:36:19.578Z,100510.63
2023-01-04T21:38:49.838Z,100502.09
2023-01-04T21:41:18.402Z,100505.28
2023-01-04T21:43:46.485Z,100510.84
2023-01-04T21:46:18.103Z,100502.41
2023-01-04T21:48:46.778Z,100506.16
2023-01-04T21:51:15.337Z,100496.66
2023-01-04T21:53:43.508Z,100503.16
2023-01-04T21:56:14.137Z,100512.13
2023-01-04T21:58:42.397Z,100513.19
2023-01-04T22:01:11.520Z,100499.84
2023-01-04T22:03:41.343Z,100506.06
2023-01-04T22:06:09.755Z,100501.34
2023-01-04T22:08:38.223Z,100499.97
2023-01-04T22:11:07.849Z,100503.91
2023-01-04T22:13:35.715Z,100505.84
2023-01-04T22:16:07.189Z,100500.94
2023-01-04T22:18:35.262Z,100509.13
2023-01-04T22:21:06.297Z,100524.09
2023-01-04T22:23:34.813Z,100513.88
2023-01-04T22:26:02.925Z,100511.91
2023-01-04T22:28:36.564Z,100507.66
2023-01-04T22:31:07.239Z,100516.84
2023-01-04T22:33:36.043Z,100509.81
2023-01-04T22:36:17.154Z,100520.72
2023-01-04T22:38:49.489Z,100522.81
2023-01-04T22:41:19.026Z,100500.28
2023-01-04T22:43:47.410Z,100527.53
2023-01-04T22:46:18.236Z,100531.47
2023-01-04T22:48:46.849Z,100532.63
2023-01-04T22:51:20.611Z,100531.47
2023-01-04T22:53:49.035Z,100536.28
2023-01-04T22:56:21.468Z,100537.16
2023-01-04T22:58:53.375Z,100543.53
2023-01-04T23:01:23.236Z,100544.41
2023-01-04T23:03:52.374Z,100539.69
2023-01-04T23:06:22.821Z,100543.13
2023-01-04T23:08:56.227Z,100532.66
2023-01-04T23:11:26.271Z,100539.81
2023-01-04T23:13:54.634Z,100539.38
2023-01-04T23:16:29.560Z,100538.09
2023-01-04T23:18:59.824Z,100539.94
2023-01-04T23:21:29.281Z,100549.97
2023-01-04T23:23:57.221Z,100567.50
2023-01-04T23:26:26.426Z,100553.69
2023-01-04T23:28:54.355Z,100564.91
2023-01-04T23:31:25.480Z,100547.72
2023-01-04T23:33:54.973Z,100551.00
2023-01-04T23:36:24.839Z,100556.66
2023-01-04T23:38:56.061Z,100556.78
2023-01-04T23:41:44.231Z,100550.06
2023-01-04T23:44:14.195Z,100554.97
2023-01-04T23:46:42.149Z,100572.25
2023-01-04T23:49:10.545Z,100551.97
2023-01-04T23:51:38.531Z,100568.81
2023-01-04T23:54:08.913Z,100570.56
2023-01-04T23:56:37.134Z,100572.47
2023-01-04T23:59:05.483Z,100574.84
